Weather at Daniel K Inouye International Airport

Public forecast

Using degrees Fahrenheit for public forecast. Weather courtesy of forecast.io.

Current aviation weather report (METAR) for Daniel K Inouye International Airport

Retrieved 2021/10/22 06:53 UTC (13 minutes ago):

PHNL 220653Z 03004KT 10SM FEW025 FEW036 SCT047 25/19 A3007

Aviation forecast (TAF) for Daniel K Inouye International Airport

Retrieved 2021/10/22 06:27 UTC (39 minutes ago):

TAF PHNL 220525Z 2206/2312 06006KT P6SM VCSH SCT025 BKN045 BKN060 FM222100 07013G20KT P6SM SCT025 SCT045 FM230500 06010KT P6SM FEW025 SCT045